sensor_id;sensor_type;location;lat;lon;timestamp;P1;durP1;ratioP1;P2;durP2;ratioP2
73023;SDS011;61199;47.526;8.538;2023-02-14T00:00:25;81.20;;;34.03;;
73023;SDS011;61199;47.526;8.538;2023-02-14T00:02:52;80.77;;;33.80;;
73023;SDS011;61199;47.526;8.538;2023-02-14T00:05:18;80.77;;;35.40;;
73023;SDS011;61199;47.526;8.538;2023-02-14T00:07:44;95.30;;;38.27;;
73023;SDS011;61199;47.526;8.538;2023-02-14T00:10:11;82.13;;;34.43;;
73023;SDS011;61199;47.526;8.538;2023-02-14T00:12:37;88.37;;;35.47;;
73023;SDS011;61199;47.526;8.538;2023-02-14T00:15:04;94.60;;;39.00;;
73023;SDS011;61199;47.526;8.538;2023-02-14T00:17:49;95.33;;;37.10;;
73023;SDS011;61199;47.526;8.538;2023-02-14T00:20:17;88.27;;;36.80;;
73023;SDS011;61199;47.526;8.538;2023-02-14T00:22:43;85.23;;;36.40;;
73023;SDS011;61199;47.526;8.538;2023-02-14T00:25:09;80.93;;;35.73;;
73023;SDS011;61199;47.526;8.538;2023-02-14T00:27:36;91.07;;;35.13;;
73023;SDS011;61199;47.526;8.538;2023-02-14T00:30:03;86.77;;;35.83;;
73023;SDS011;61199;47.526;8.538;2023-02-14T00:32:31;85.87;;;33.80;;
73023;SDS011;61199;47.526;8.538;2023-02-14T00:34:58;93.97;;;36.80;;
73023;SDS011;61199;47.526;8.538;2023-02-14T00:37:24;86.40;;;34.37;;
73023;SDS011;61199;47.526;8.538;2023-02-14T00:39:51;85.97;;;34.83;;
73023;SDS011;61199;47.526;8.538;2023-02-14T00:42:17;80.43;;;33.23;;
73023;SDS011;61199;47.526;8.538;2023-02-14T00:44:44;87.30;;;34.30;;
73023;SDS011;61199;47.526;8.538;2023-02-14T00:47:11;92.30;;;34.87;;
73023;SDS011;61199;47.526;8.538;2023-02-14T00:49:37;89.10;;;36.30;;
73023;SDS011;61199;47.526;8.538;2023-02-14T00:52:04;87.07;;;32.90;;
73023;SDS011;61199;47.526;8.538;2023-02-14T00:54:30;85.13;;;34.30;;
73023;SDS011;61199;47.526;8.538;2023-02-14T00:56:57;85.00;;;33.97;;
73023;SDS011;61199;47.526;8.538;2023-02-14T00:59:23;80.20;;;33.17;;
73023;SDS011;61199;47.526;8.538;2023-02-14T01:01:50;82.20;;;34.00;;
73023;SDS011;61199;47.526;8.538;2023-02-14T01:04:16;77.60;;;32.47;;
73023;SDS011;61199;47.526;8.538;2023-02-14T01:06:43;90.23;;;36.00;;
73023;SDS011;61199;47.526;8.538;2023-02-14T01:09:09;92.70;;;36.07;;
73023;SDS011;61199;47.526;8.538;2023-02-14T01:11:37;82.00;;;33.17;;
73023;SDS011;61199;47.526;8.538;2023-02-14T01:14:04;86.27;;;34.33;;
73023;SDS011;61199;47.526;8.538;2023-02-14T01:16:31;76.50;;;32.90;;
73023;SDS011;61199;47.526;8.538;2023-02-14T01:18:58;79.87;;;36.10;;
73023;SDS011;61199;47.526;8.538;2023-02-14T01:21:27;85.03;;;33.53;;
73023;SDS011;61199;47.526;8.538;2023-02-14T01:23:57;73.97;;;34.07;;
73023;SDS011;61199;47.526;8.538;2023-02-14T01:26:25;77.30;;;32.73;;
73023;SDS011;61199;47.526;8.538;2023-02-14T01:28:53;81.27;;;33.73;;
73023;SDS011;61199;47.526;8.538;2023-02-14T01:31:21;81.63;;;33.37;;
73023;SDS011;61199;47.526;8.538;2023-02-14T01:33:53;74.13;;;32.27;;
73023;SDS011;61199;47.526;8.538;2023-02-14T01:36:21;74.03;;;32.43;;
73023;SDS011;61199;47.526;8.538;2023-02-14T01:38:50;80.43;;;35.80;;
73023;SDS011;61199;47.526;8.538;2023-02-14T01:41:18;79.30;;;33.07;;
73023;SDS011;61199;47.526;8.538;2023-02-14T01:43:48;74.77;;;33.67;;
73023;SDS011;61199;47.526;8.538;2023-02-14T01:46:16;83.13;;;33.77;;
73023;SDS011;61199;47.526;8.538;2023-02-14T01:48:42;73.73;;;31.53;;
73023;SDS011;61199;47.526;8.538;2023-02-14T01:51:09;83.27;;;34.40;;
73023;SDS011;61199;47.526;8.538;2023-02-14T01:53:35;76.03;;;33.27;;
73023;SDS011;61199;47.526;8.538;2023-02-14T01:56:04;78.73;;;32.50;;
73023;SDS011;61199;47.526;8.538;2023-02-14T01:58:35;76.53;;;32.30;;
73023;SDS011;61199;47.526;8.538;2023-02-14T02:01:04;79.00;;;32.63;;
73023;SDS011;61199;47.526;8.538;2023-02-14T02:03:33;74.50;;;31.30;;
73023;SDS011;61199;47.526;8.538;2023-02-14T02:06:13;76.57;;;33.10;;
73023;SDS011;61199;47.526;8.538;2023-02-14T02:10:02;71.77;;;32.03;;
73023;SDS011;61199;47.526;8.538;2023-02-14T02:12:09;76.93;;;32.73;;
73023;SDS011;61199;47.526;8.538;2023-02-14T02:14:36;70.97;;;31.13;;
73023;SDS011;61199;47.526;8.538;2023-02-14T02:37:02;73.43;;;30.87;;
73023;SDS011;61199;47.526;8.538;2023-02-14T02:39:44;82.17;;;33.23;;
73023;SDS011;61199;47.526;8.538;2023-02-14T02:50:46;81.97;;;34.40;;
73023;SDS011;61199;47.526;8.538;2023-02-14T02:53:42;79.47;;;31.23;;
73023;SDS011;61199;47.526;8.538;2023-02-14T02:56:51;69.50;;;30.70;;
73023;SDS011;61199;47.526;8.538;2023-02-14T02:59:22;69.27;;;28.97;;
73023;SDS011;61199;47.526;8.538;2023-02-14T03:01:56;73.87;;;31.27;;
73023;SDS011;61199;47.526;8.538;2023-02-14T03:04:25;70.60;;;30.70;;
73023;SDS011;61199;47.526;8.538;2023-02-14T03:07:11;78.27;;;31.77;;
73023;SDS011;61199;47.526;8.538;2023-02-14T03:09:58;66.13;;;29.00;;
73023;SDS011;61199;47.526;8.538;2023-02-14T03:15:53;91.43;;;30.83;;
73023;SDS011;61199;47.526;8.538;2023-02-14T03:18:56;73.63;;;30.57;;
73023;SDS011;61199;47.526;8.538;2023-02-14T03:27:21;65.07;;;28.33;;
73023;SDS011;61199;47.526;8.538;2023-02-14T03:30:02;81.47;;;31.57;;
73023;SDS011;61199;47.526;8.538;2023-02-14T03:32:40;76.43;;;32.47;;
73023;SDS011;61199;47.526;8.538;2023-02-14T03:35:20;71.90;;;30.87;;
73023;SDS011;61199;47.526;8.538;2023-02-14T03:38:00;80.70;;;31.73;;
73023;SDS011;61199;47.526;8.538;2023-02-14T03:40:35;73.57;;;30.60;;
73023;SDS011;61199;47.526;8.538;2023-02-14T03:43:07;77.27;;;31.17;;
73023;SDS011;61199;47.526;8.538;2023-02-14T03:45:50;77.97;;;32.57;;
73023;SDS011;61199;47.526;8.538;2023-02-14T03:48:23;75.60;;;33.60;;
73023;SDS011;61199;47.526;8.538;2023-02-14T03:50:52;88.30;;;33.97;;
73023;SDS011;61199;47.526;8.538;2023-02-14T03:53:21;68.77;;;31.30;;
73023;SDS011;61199;47.526;8.538;2023-02-14T03:56:02;74.57;;;31.53;;
73023;SDS011;61199;47.526;8.538;2023-02-14T03:58:42;74.40;;;31.93;;
73023;SDS011;61199;47.526;8.538;2023-02-14T04:01:12;70.50;;;31.53;;
73023;SDS011;61199;47.526;8.538;2023-02-14T04:03:45;84.00;;;32.73;;
73023;SDS011;61199;47.526;8.538;2023-02-14T04:06:15;73.20;;;32.07;;
73023;SDS011;61199;47.526;8.538;2023-02-14T04:08:43;77.97;;;31.17;;
73023;SDS011;61199;47.526;8.538;2023-02-14T04:11:10;75.33;;;31.87;;
73023;SDS011;61199;47.526;8.538;2023-02-14T04:13:37;79.40;;;33.40;;
73023;SDS011;61199;47.526;8.538;2023-02-14T04:16:04;67.53;;;29.80;;
73023;SDS011;61199;47.526;8.538;2023-02-14T04:18:31;77.57;;;32.03;;
73023;SDS011;61199;47.526;8.538;2023-02-14T04:21:16;70.80;;;30.87;;
73023;SDS011;61199;47.526;8.538;2023-02-14T04:23:42;65.90;;;29.43;;
73023;SDS011;61199;47.526;8.538;2023-02-14T04:26:09;72.03;;;30.27;;
73023;SDS011;61199;47.526;8.538;2023-02-14T04:28:35;67.60;;;30.10;;
73023;SDS011;61199;47.526;8.538;2023-02-14T04:31:02;66.73;;;29.73;;
73023;SDS011;61199;47.526;8.538;2023-02-14T04:33:30;72.53;;;31.80;;
73023;SDS011;61199;47.526;8.538;2023-02-14T04:35:58;71.57;;;29.27;;
73023;SDS011;61199;47.526;8.538;2023-02-14T04:38:25;67.37;;;30.57;;
73023;SDS011;61199;47.526;8.538;2023-02-14T04:40:51;68.47;;;29.27;;
73023;SDS011;61199;47.526;8.538;2023-02-14T04:43:18;66.63;;;29.67;;
73023;SDS011;61199;47.526;8.538;2023-02-14T04:45:45;61.77;;;29.90;;
73023;SDS011;61199;47.526;8.538;2023-02-14T04:48:12;60.20;;;28.40;;
73023;SDS011;61199;47.526;8.538;2023-02-14T04:50:38;61.07;;;27.67;;
73023;SDS011;61199;47.526;8.538;2023-02-14T04:53:05;66.33;;;28.60;;
73023;SDS011;61199;47.526;8.538;2023-02-14T04:55:31;68.83;;;29.13;;
73023;SDS011;61199;47.526;8.538;2023-02-14T04:57:58;63.70;;;29.03;;
73023;SDS011;61199;47.526;8.538;2023-02-14T05:00:24;70.30;;;29.47;;
73023;SDS011;61199;47.526;8.538;2023-02-14T05:02:50;59.43;;;26.90;;
73023;SDS011;61199;47.526;8.538;2023-02-14T05:05:17;59.93;;;26.40;;
73023;SDS011;61199;47.526;8.538;2023-02-14T05:07:43;59.53;;;26.97;;
73023;SDS011;61199;47.526;8.538;2023-02-14T05:10:13;62.30;;;27.10;;
73023;SDS011;61199;47.526;8.538;2023-02-14T05:12:39;53.97;;;25.70;;
73023;SDS011;61199;47.526;8.538;2023-02-14T05:15:06;57.37;;;27.03;;
73023;SDS011;61199;47.526;8.538;2023-02-14T05:17:33;60.37;;;27.17;;
73023;SDS011;61199;47.526;8.538;2023-02-14T05:20:01;66.00;;;27.50;;
73023;SDS011;61199;47.526;8.538;2023-02-14T05:22:27;62.47;;;27.10;;
73023;SDS011;61199;47.526;8.538;2023-02-14T05:24:53;64.23;;;27.63;;
73023;SDS011;61199;47.526;8.538;2023-02-14T05:27:20;63.50;;;27.43;;
73023;SDS011;61199;47.526;8.538;2023-02-14T05:29:46;57.27;;;26.40;;
73023;SDS011;61199;47.526;8.538;2023-02-14T05:32:13;67.13;;;27.27;;
73023;SDS011;61199;47.526;8.538;2023-02-14T05:34:39;57.47;;;26.33;;
73023;SDS011;61199;47.526;8.538;2023-02-14T05:37:05;65.17;;;27.57;;
73023;SDS011;61199;47.526;8.538;2023-02-14T05:39:32;63.17;;;28.60;;
73023;SDS011;61199;47.526;8.538;2023-02-14T05:41:58;61.87;;;27.00;;
73023;SDS011;61199;47.526;8.538;2023-02-14T05:44:25;59.90;;;26.37;;
73023;SDS011;61199;47.526;8.538;2023-02-14T05:46:51;65.90;;;29.33;;
73023;SDS011;61199;47.526;8.538;2023-02-14T05:49:19;62.43;;;26.97;;
73023;SDS011;61199;47.526;8.538;2023-02-14T05:51:46;56.97;;;27.07;;
73023;SDS011;61199;47.526;8.538;2023-02-14T05:54:12;66.53;;;27.73;;
73023;SDS011;61199;47.526;8.538;2023-02-14T05:56:39;65.20;;;29.60;;
73023;SDS011;61199;47.526;8.538;2023-02-14T05:59:05;60.67;;;27.93;;
73023;SDS011;61199;47.526;8.538;2023-02-14T06:01:32;64.47;;;27.23;;
73023;SDS011;61199;47.526;8.538;2023-02-14T06:03:58;62.20;;;28.00;;
73023;SDS011;61199;47.526;8.538;2023-02-14T06:06:24;62.83;;;27.23;;
73023;SDS011;61199;47.526;8.538;2023-02-14T06:08:51;65.70;;;29.50;;
73023;SDS011;61199;47.526;8.538;2023-02-14T06:11:17;65.70;;;28.80;;
73023;SDS011;61199;47.526;8.538;2023-02-14T06:13:43;62.60;;;26.77;;
73023;SDS011;61199;47.526;8.538;2023-02-14T06:16:10;69.23;;;28.07;;
73023;SDS011;61199;47.526;8.538;2023-02-14T06:18:36;63.43;;;27.87;;
73023;SDS011;61199;47.526;8.538;2023-02-14T06:21:03;66.93;;;28.57;;
73023;SDS011;61199;47.526;8.538;2023-02-14T06:23:30;55.53;;;26.00;;
73023;SDS011;61199;47.526;8.538;2023-02-14T06:25:56;57.97;;;27.53;;
73023;SDS011;61199;47.526;8.538;2023-02-14T06:28:22;61.73;;;28.10;;
73023;SDS011;61199;47.526;8.538;2023-02-14T06:30:49;61.37;;;27.67;;
73023;SDS011;61199;47.526;8.538;2023-02-14T06:33:15;66.80;;;28.10;;
73023;SDS011;61199;47.526;8.538;2023-02-14T06:35:42;66.63;;;28.27;;
73023;SDS011;61199;47.526;8.538;2023-02-14T06:38:08;61.67;;;25.90;;
73023;SDS011;61199;47.526;8.538;2023-02-14T06:40:35;58.63;;;27.70;;
73023;SDS011;61199;47.526;8.538;2023-02-14T06:43:01;61.63;;;28.33;;
73023;SDS011;61199;47.526;8.538;2023-02-14T06:45:27;60.10;;;26.90;;
73023;SDS011;61199;47.526;8.538;2023-02-14T06:47:54;62.23;;;28.20;;
73023;SDS011;61199;47.526;8.538;2023-02-14T06:50:20;66.43;;;27.80;;
73023;SDS011;61199;47.526;8.538;2023-02-14T06:52:46;59.23;;;26.50;;
73023;SDS011;61199;47.526;8.538;2023-02-14T06:55:13;61.03;;;27.10;;
73023;SDS011;61199;47.526;8.538;2023-02-14T06:57:39;58.53;;;26.90;;
73023;SDS011;61199;47.526;8.538;2023-02-14T07:00:06;62.37;;;28.63;;
73023;SDS011;61199;47.526;8.538;2023-02-14T07:02:32;65.93;;;27.20;;
73023;SDS011;61199;47.526;8.538;2023-02-14T07:04:59;59.20;;;27.70;;
73023;SDS011;61199;47.526;8.538;2023-02-14T07:07:25;60.80;;;27.27;;
73023;SDS011;61199;47.526;8.538;2023-02-14T07:09:51;59.67;;;28.60;;
73023;SDS011;61199;47.526;8.538;2023-02-14T07:12:18;64.27;;;28.10;;
73023;SDS011;61199;47.526;8.538;2023-02-14T07:14:44;65.10;;;28.10;;
73023;SDS011;61199;47.526;8.538;2023-02-14T07:17:10;60.83;;;28.03;;
73023;SDS011;61199;47.526;8.538;2023-02-14T07:19:37;63.20;;;27.30;;
73023;SDS011;61199;47.526;8.538;2023-02-14T07:22:03;67.13;;;28.10;;
73023;SDS011;61199;47.526;8.538;2023-02-14T07:24:29;73.13;;;31.17;;
73023;SDS011;61199;47.526;8.538;2023-02-14T07:26:56;63.13;;;28.90;;
73023;SDS011;61199;47.526;8.538;2023-02-14T07:29:22;70.07;;;29.27;;
73023;SDS011;61199;47.526;8.538;2023-02-14T07:31:49;62.87;;;28.03;;
73023;SDS011;61199;47.526;8.538;2023-02-14T07:34:15;68.90;;;28.90;;
73023;SDS011;61199;47.526;8.538;2023-02-14T07:36:41;65.00;;;27.00;;
73023;SDS011;61199;47.526;8.538;2023-02-14T07:39:09;67.43;;;29.80;;
73023;SDS011;61199;47.526;8.538;2023-02-14T07:41:35;64.93;;;29.43;;
73023;SDS011;61199;47.526;8.538;2023-02-14T07:44:02;67.73;;;27.53;;
73023;SDS011;61199;47.526;8.538;2023-02-14T07:46:28;62.23;;;27.80;;
73023;SDS011;61199;47.526;8.538;2023-02-14T07:48:55;63.43;;;29.83;;
73023;SDS011;61199;47.526;8.538;2023-02-14T07:51:21;64.53;;;29.10;;
73023;SDS011;61199;47.526;8.538;2023-02-14T07:53:48;72.03;;;30.80;;
73023;SDS011;61199;47.526;8.538;2023-02-14T07:56:14;62.53;;;29.33;;
73023;SDS011;61199;47.526;8.538;2023-02-14T07:58:41;69.37;;;29.30;;
73023;SDS011;61199;47.526;8.538;2023-02-14T08:01:07;61.80;;;28.40;;
73023;SDS011;61199;47.526;8.538;2023-02-14T08:03:34;62.43;;;26.67;;
73023;SDS011;61199;47.526;8.538;2023-02-14T08:06:00;64.27;;;27.87;;
73023;SDS011;61199;47.526;8.538;2023-02-14T08:08:28;59.37;;;26.40;;
73023;SDS011;61199;47.526;8.538;2023-02-14T08:10:55;58.00;;;25.97;;
73023;SDS011;61199;47.526;8.538;2023-02-14T08:13:22;64.50;;;28.03;;
73023;SDS011;61199;47.526;8.538;2023-02-14T08:15:49;62.27;;;27.27;;
73023;SDS011;61199;47.526;8.538;2023-02-14T08:18:31;61.97;;;27.03;;
73023;SDS011;61199;47.526;8.538;2023-02-14T08:21:00;53.73;;;25.80;;
73023;SDS011;61199;47.526;8.538;2023-02-14T08:23:27;64.20;;;25.93;;
73023;SDS011;61199;47.526;8.538;2023-02-14T08:25:54;59.13;;;26.37;;
73023;SDS011;61199;47.526;8.538;2023-02-14T08:28:20;61.83;;;26.83;;
73023;SDS011;61199;47.526;8.538;2023-02-14T08:30:47;60.40;;;26.23;;
73023;SDS011;61199;47.526;8.538;2023-02-14T08:33:14;58.10;;;27.13;;
73023;SDS011;61199;47.526;8.538;2023-02-14T08:35:40;53.53;;;25.80;;
73023;SDS011;61199;47.526;8.538;2023-02-14T08:38:07;53.10;;;25.07;;
73023;SDS011;61199;47.526;8.538;2023-02-14T08:40:35;55.47;;;25.77;;
73023;SDS011;61199;47.526;8.538;2023-02-14T08:43:05;60.33;;;26.97;;
73023;SDS011;61199;47.526;8.538;2023-02-14T08:45:32;54.30;;;25.67;;
73023;SDS011;61199;47.526;8.538;2023-02-14T08:47:59;52.70;;;24.17;;
73023;SDS011;61199;47.526;8.538;2023-02-14T08:50:27;49.33;;;23.70;;
73023;SDS011;61199;47.526;8.538;2023-02-14T08:52:53;56.00;;;24.87;;
73023;SDS011;61199;47.526;8.538;2023-02-14T08:55:19;50.27;;;23.60;;
73023;SDS011;61199;47.526;8.538;2023-02-14T08:57:46;48.73;;;23.97;;
73023;SDS011;61199;47.526;8.538;2023-02-14T09:00:14;60.33;;;26.37;;
73023;SDS011;61199;47.526;8.538;2023-02-14T09:02:41;49.60;;;23.60;;
73023;SDS011;61199;47.526;8.538;2023-02-14T09:05:07;45.87;;;23.83;;
73023;SDS011;61199;47.526;8.538;2023-02-14T09:07:35;51.97;;;24.83;;
73023;SDS011;61199;47.526;8.538;2023-02-14T09:10:02;54.97;;;25.60;;
73023;SDS011;61199;47.526;8.538;2023-02-14T09:12:28;56.60;;;25.63;;
73023;SDS011;61199;47.526;8.538;2023-02-14T09:14:55;51.97;;;25.10;;
73023;SDS011;61199;47.526;8.538;2023-02-14T09:17:21;55.13;;;25.40;;
73023;SDS011;61199;47.526;8.538;2023-02-14T09:19:47;46.90;;;22.23;;
73023;SDS011;61199;47.526;8.538;2023-02-14T09:22:14;56.13;;;24.23;;
73023;SDS011;61199;47.526;8.538;2023-02-14T09:24:40;55.37;;;25.07;;
73023;SDS011;61199;47.526;8.538;2023-02-14T09:27:07;58.57;;;25.97;;
73023;SDS011;61199;47.526;8.538;2023-02-14T09:29:33;56.20;;;25.00;;
73023;SDS011;61199;47.526;8.538;2023-02-14T09:32:00;54.30;;;25.77;;
73023;SDS011;61199;47.526;8.538;2023-02-14T09:34:27;58.70;;;25.70;;
73023;SDS011;61199;47.526;8.538;2023-02-14T09:37:13;61.73;;;25.40;;
73023;SDS011;61199;47.526;8.538;2023-02-14T09:39:58;57.90;;;25.73;;
73023;SDS011;61199;47.526;8.538;2023-02-14T09:50:15;53.87;;;25.50;;
73023;SDS011;61199;47.526;8.538;2023-02-14T09:52:51;54.53;;;24.60;;
73023;SDS011;61199;47.526;8.538;2023-02-14T09:55:21;52.90;;;23.90;;
73023;SDS011;61199;47.526;8.538;2023-02-14T09:58:02;60.70;;;26.27;;
73023;SDS011;61199;47.526;8.538;2023-02-14T10:00:35;49.80;;;23.27;;
73023;SDS011;61199;47.526;8.538;2023-02-14T10:06:14;49.30;;;24.03;;
73023;SDS011;61199;47.526;8.538;2023-02-14T10:11:47;53.73;;;23.63;;
73023;SDS011;61199;47.526;8.538;2023-02-14T10:14:15;48.37;;;24.50;;
73023;SDS011;61199;47.526;8.538;2023-02-14T10:16:52;55.03;;;24.23;;
73023;SDS011;61199;47.526;8.538;2023-02-14T10:19:39;54.60;;;24.43;;
73023;SDS011;61199;47.526;8.538;2023-02-14T10:22:25;53.80;;;24.57;;
73023;SDS011;61199;47.526;8.538;2023-02-14T10:25:01;56.47;;;24.00;;
73023;SDS011;61199;47.526;8.538;2023-02-14T10:27:33;53.20;;;24.10;;
73023;SDS011;61199;47.526;8.538;2023-02-14T10:30:02;51.57;;;24.70;;
73023;SDS011;61199;47.526;8.538;2023-02-14T10:32:48;61.50;;;25.03;;
73023;SDS011;61199;47.526;8.538;2023-02-14T10:40:44;51.60;;;25.03;;
73023;SDS011;61199;47.526;8.538;2023-02-14T10:43:42;58.97;;;25.67;;
73023;SDS011;61199;47.526;8.538;2023-02-14T10:49:17;53.17;;;24.37;;
73023;SDS011;61199;47.526;8.538;2023-02-14T10:52:26;48.00;;;22.43;;
73023;SDS011;61199;47.526;8.538;2023-02-14T10:58:08;55.23;;;24.40;;
73023;SDS011;61199;47.526;8.538;2023-02-14T11:00:45;49.67;;;23.57;;
73023;SDS011;61199;47.526;8.538;2023-02-14T11:03:14;56.83;;;24.10;;
73023;SDS011;61199;47.526;8.538;2023-02-14T11:05:42;48.17;;;23.17;;
73023;SDS011;61199;47.526;8.538;2023-02-14T11:08:12;56.23;;;24.57;;
73023;SDS011;61199;47.526;8.538;2023-02-14T11:10:43;51.73;;;23.80;;
73023;SDS011;61199;47.526;8.538;2023-02-14T11:13:30;51.63;;;25.10;;
73023;SDS011;61199;47.526;8.538;2023-02-14T11:16:00;50.10;;;23.50;;
73023;SDS011;61199;47.526;8.538;2023-02-14T11:18:31;44.80;;;22.43;;
73023;SDS011;61199;47.526;8.538;2023-02-14T11:21:14;51.50;;;24.10;;
73023;SDS011;61199;47.526;8.538;2023-02-14T11:23:43;53.73;;;24.63;;
73023;SDS011;61199;47.526;8.538;2023-02-14T11:26:22;56.43;;;23.57;;
73023;SDS011;61199;47.526;8.538;2023-02-14T11:28:57;46.30;;;22.70;;
73023;SDS011;61199;47.526;8.538;2023-02-14T11:31:26;50.17;;;23.63;;
73023;SDS011;61199;47.526;8.538;2023-02-14T11:33:55;50.70;;;24.40;;
73023;SDS011;61199;47.526;8.538;2023-02-14T11:36:23;50.00;;;22.37;;
73023;SDS011;61199;47.526;8.538;2023-02-14T11:38:55;45.80;;;22.00;;
73023;SDS011;61199;47.526;8.538;2023-02-14T11:41:27;48.37;;;23.37;;
73023;SDS011;61199;47.526;8.538;2023-02-14T11:44:13;46.30;;;22.73;;
73023;SDS011;61199;47.526;8.538;2023-02-14T11:46:48;46.67;;;22.00;;
73023;SDS011;61199;47.526;8.538;2023-02-14T11:49:21;51.30;;;23.30;;
73023;SDS011;61199;47.526;8.538;2023-02-14T11:51:57;46.93;;;21.83;;
73023;SDS011;61199;47.526;8.538;2023-02-14T11:54:27;43.03;;;20.73;;
73023;SDS011;61199;47.526;8.538;2023-02-14T11:57:03;47.00;;;21.60;;
73023;SDS011;61199;47.526;8.538;2023-02-14T11:59:46;42.50;;;21.07;;
73023;SDS011;61199;47.526;8.538;2023-02-14T12:04:54;47.43;;;23.17;;
73023;SDS011;61199;47.526;8.538;2023-02-14T12:07:28;49.10;;;22.93;;
73023;SDS011;61199;47.526;8.538;2023-02-14T12:12:54;51.83;;;22.63;;
73023;SDS011;61199;47.526;8.538;2023-02-14T12:15:31;50.33;;;23.60;;
73023;SDS011;61199;47.526;8.538;2023-02-14T12:20:36;47.13;;;21.57;;
73023;SDS011;61199;47.526;8.538;2023-02-14T12:23:15;46.67;;;22.30;;
73023;SDS011;61199;47.526;8.538;2023-02-14T12:26:05;49.20;;;21.83;;
73023;SDS011;61199;47.526;8.538;2023-02-14T12:28:42;42.60;;;20.80;;
73023;SDS011;61199;47.526;8.538;2023-02-14T12:31:13;44.07;;;21.87;;
73023;SDS011;61199;47.526;8.538;2023-02-14T12:33:40;42.80;;;21.43;;
73023;SDS011;61199;47.526;8.538;2023-02-14T12:39:11;44.30;;;20.60;;
73023;SDS011;61199;47.526;8.538;2023-02-14T12:53:01;37.23;;;19.47;;
73023;SDS011;61199;47.526;8.538;2023-02-14T12:55:55;38.63;;;20.73;;
73023;SDS011;61199;47.526;8.538;2023-02-14T13:07:02;35.07;;;18.97;;
73023;SDS011;61199;47.526;8.538;2023-02-14T13:10:08;35.40;;;19.40;;
73023;SDS011;61199;47.526;8.538;2023-02-14T13:15:26;41.63;;;21.43;;
73023;SDS011;61199;47.526;8.538;2023-02-14T13:18:23;34.17;;;18.23;;
73023;SDS011;61199;47.526;8.538;2023-02-14T13:20:53;33.03;;;18.83;;
73023;SDS011;61199;47.526;8.538;2023-02-14T13:23:38;37.20;;;18.43;;
73023;SDS011;61199;47.526;8.538;2023-02-14T13:28:44;31.73;;;18.10;;
73023;SDS011;61199;47.526;8.538;2023-02-14T13:31:17;41.83;;;20.97;;
73023;SDS011;61199;47.526;8.538;2023-02-14T13:33:55;34.40;;;19.03;;
73023;SDS011;61199;47.526;8.538;2023-02-14T13:36:25;34.93;;;18.83;;
73023;SDS011;61199;47.526;8.538;2023-02-14T13:38:54;35.47;;;19.77;;
73023;SDS011;61199;47.526;8.538;2023-02-14T13:41:22;36.43;;;19.83;;
73023;SDS011;61199;47.526;8.538;2023-02-14T13:43:55;37.67;;;21.13;;
73023;SDS011;61199;47.526;8.538;2023-02-14T13:49:14;38.20;;;20.60;;
73023;SDS011;61199;47.526;8.538;2023-02-14T13:51:55;36.80;;;18.87;;
73023;SDS011;61199;47.526;8.538;2023-02-14T13:54:27;35.37;;;18.47;;
73023;SDS011;61199;47.526;8.538;2023-02-14T13:57:43;36.47;;;20.47;;
73023;SDS011;61199;47.526;8.538;2023-02-14T14:11:10;34.17;;;19.33;;
73023;SDS011;61199;47.526;8.538;2023-02-14T14:18:59;31.73;;;18.80;;
73023;SDS011;61199;47.526;8.538;2023-02-14T14:26:57;36.23;;;19.90;;
73023;SDS011;61199;47.526;8.538;2023-02-14T14:32:18;37.70;;;19.93;;
73023;SDS011;61199;47.526;8.538;2023-02-14T14:34:57;36.97;;;20.50;;
73023;SDS011;61199;47.526;8.538;2023-02-14T14:37:27;35.57;;;19.33;;
73023;SDS011;61199;47.526;8.538;2023-02-14T14:39:56;33.47;;;18.17;;
73023;SDS011;61199;47.526;8.538;2023-02-14T14:42:25;37.33;;;20.40;;
73023;SDS011;61199;47.526;8.538;2023-02-14T14:44:56;37.07;;;18.80;;
73023;SDS011;61199;47.526;8.538;2023-02-14T14:47:27;40.97;;;20.53;;
73023;SDS011;61199;47.526;8.538;2023-02-14T14:49:59;36.07;;;19.07;;
73023;SDS011;61199;47.526;8.538;2023-02-14T14:52:36;37.93;;;21.03;;
73023;SDS011;61199;47.526;8.538;2023-02-14T14:55:06;34.23;;;19.47;;
73023;SDS011;61199;47.526;8.538;2023-02-14T14:57:40;37.07;;;18.93;;
73023;SDS011;61199;47.526;8.538;2023-02-14T15:00:19;38.10;;;20.40;;
73023;SDS011;61199;47.526;8.538;2023-02-14T15:05:35;41.43;;;20.73;;
73023;SDS011;61199;47.526;8.538;2023-02-14T15:10:49;31.70;;;18.77;;
73023;SDS011;61199;47.526;8.538;2023-02-14T15:13:15;33.57;;;19.03;;
73023;SDS011;61199;47.526;8.538;2023-02-14T15:16:00;33.87;;;18.50;;
73023;SDS011;61199;47.526;8.538;2023-02-14T15:18:29;33.43;;;19.00;;
73023;SDS011;61199;47.526;8.538;2023-02-14T15:20:55;34.27;;;19.00;;
73023;SDS011;61199;47.526;8.538;2023-02-14T15:23:22;35.63;;;19.00;;
73023;SDS011;61199;47.526;8.538;2023-02-14T15:25:49;35.43;;;20.20;;
73023;SDS011;61199;47.526;8.538;2023-02-14T15:28:31;36.20;;;21.27;;
73023;SDS011;61199;47.526;8.538;2023-02-14T15:31:00;31.10;;;17.90;;
73023;SDS011;61199;47.526;8.538;2023-02-14T15:33:29;40.17;;;20.80;;
73023;SDS011;61199;47.526;8.538;2023-02-14T15:36:01;38.20;;;18.90;;
73023;SDS011;61199;47.526;8.538;2023-02-14T15:38:31;36.23;;;19.37;;
73023;SDS011;61199;47.526;8.538;2023-02-14T15:41:01;32.37;;;18.33;;
73023;SDS011;61199;47.526;8.538;2023-02-14T15:43:32;37.67;;;20.20;;
73023;SDS011;61199;47.526;8.538;2023-02-14T15:46:15;39.83;;;19.87;;
73023;SDS011;61199;47.526;8.538;2023-02-14T15:48:54;34.33;;;19.10;;
73023;SDS011;61199;47.526;8.538;2023-02-14T15:51:26;39.97;;;20.13;;
73023;SDS011;61199;47.526;8.538;2023-02-14T15:53:56;40.60;;;20.30;;
73023;SDS011;61199;47.526;8.538;2023-02-14T15:56:32;46.10;;;20.93;;
73023;SDS011;61199;47.526;8.538;2023-02-14T15:59:10;35.10;;;19.60;;
73023;SDS011;61199;47.526;8.538;2023-02-14T16:01:47;35.37;;;20.47;;
73023;SDS011;61199;47.526;8.538;2023-02-14T16:04:21;37.03;;;19.20;;
73023;SDS011;61199;47.526;8.538;2023-02-14T16:07:01;35.40;;;19.43;;
73023;SDS011;61199;47.526;8.538;2023-02-14T16:09:30;34.73;;;20.00;;
73023;SDS011;61199;47.526;8.538;2023-02-14T16:12:09;34.93;;;19.63;;
73023;SDS011;61199;47.526;8.538;2023-02-14T16:14:40;37.17;;;19.50;;
73023;SDS011;61199;47.526;8.538;2023-02-14T16:17:10;42.93;;;19.70;;
73023;SDS011;61199;47.526;8.538;2023-02-14T16:19:39;35.27;;;18.40;;
73023;SDS011;61199;47.526;8.538;2023-02-14T16:22:26;37.43;;;20.70;;
73023;SDS011;61199;47.526;8.538;2023-02-14T16:25:00;37.60;;;21.23;;
73023;SDS011;61199;47.526;8.538;2023-02-14T16:27:26;39.80;;;19.57;;
73023;SDS011;61199;47.526;8.538;2023-02-14T16:29:53;39.13;;;19.93;;
73023;SDS011;61199;47.526;8.538;2023-02-14T16:32:19;37.67;;;20.07;;
73023;SDS011;61199;47.526;8.538;2023-02-14T16:34:47;42.97;;;21.40;;
73023;SDS011;61199;47.526;8.538;2023-02-14T16:37:19;67.67;;;31.73;;
73023;SDS011;61199;47.526;8.538;2023-02-14T16:39:47;47.43;;;23.77;;
73023;SDS011;61199;47.526;8.538;2023-02-14T16:42:19;44.23;;;21.87;;
73023;SDS011;61199;47.526;8.538;2023-02-14T16:44:45;43.13;;;21.23;;
73023;SDS011;61199;47.526;8.538;2023-02-14T16:47:13;42.53;;;21.77;;
73023;SDS011;61199;47.526;8.538;2023-02-14T16:49:40;38.57;;;20.40;;
73023;SDS011;61199;47.526;8.538;2023-02-14T16:52:14;38.17;;;19.37;;
73023;SDS011;61199;47.526;8.538;2023-02-14T16:54:52;38.10;;;20.57;;